GMTA

Cherif Al Idrissi Airport

Al Hoceima, Morocco
METAR GMTA 201100Z 30012KT 8000 SCT013 BKN030 16/12 Q1014 NOSIG
Observed Flight Rules
Jan-20 @ 11:00 UTC (35 minutes ago) Marginal Visual Flight Rules
Wind Visibility Clouds
300° at 12 knots 7,998 meters
  • Scattered at 1,300' AGL
  • Broken at 3,000' AGL
Temperatures Readings
Current 16°C / 61°F
Dewpoint 12°C / 54°F
Humidity 77%
Altimeter 29.94" Hg
Pressure 1013.92 hPa
Elevation 14
METAR GMTA 201100Z 30012KT 8000 SCT013 BKN030 16/12 Q1014 NOSIG
Observed Flight Rules
Jan-20 @ 11:00 UTC
(35 minutes ago)
MVFR
Wind Visibility
300° at 12 knots 7,998 meters
Clouds
  • Scattered at 1,300' AGL
  • Broken at 3,000' AGL
Temperature Dewpoint
16°C / 61°F 12°C / 54°F
Humidity Altimeter Pressure
77% 29.94" Hg 1013.92 hPa